Time;durP1;ratioP1;P1;durP2;ratioP2;P2;SDS_P1;SDS_P2;PMS_P1;PMS_P2;Temp;Humidity;BMP_temperature;BMP_pressure;BME280_temperature;BME280_humidity;BME280_pressure;Samples;Min_cycle;Max_cycle;Signal;HPM_P1;HPM_P2
2022/01/03 00:01:24;;;;;;;;;5.00;2.00;;;;;13.66;61.56;101397.84;4974280;28;45315;-80
2022/01/03 00:03:49;;;;;;;;;4.00;3.00;;;;;13.66;62.06;101406.09;4959477;28;45326;-78
2022/01/03 00:06:15;;;;;;;;;3.00;2.67;;;;;13.64;62.13;101397.19;4953416;28;45909;-77
2022/01/03 00:08:43;;;;;;;;;8.00;3.00;;;;;13.65;61.11;101401.63;4954801;28;45743;-79
2022/01/03 00:11:13;;;;;;;;;4.33;2.33;;;;;13.60;61.57;101400.38;4973015;28;48015;-82
2022/01/03 00:13:45;;;;;;;;;2.67;1.33;;;;;13.60;61.93;101403.13;4987165;28;45433;-82
2022/01/03 00:16:11;;;;;;;;;5.33;1.67;;;;;13.58;61.22;101399.75;4993928;28;45742;-77
2022/01/03 00:18:37;;;;;;;;;5.33;1.00;;;;;13.55;61.74;101400.16;4981059;28;45519;-78
2022/01/03 00:21:14;;;;;;;;;6.33;2.00;;;;;13.49;61.82;101390.00;4971462;28;48089;-77
2022/01/03 00:23:46;;;;;;;;;2.00;1.33;;;;;13.53;61.68;101405.06;4973531;28;45397;-78
2022/01/03 00:26:13;;;;;;;;;1.67;1.67;;;;;13.46;62.35;101412.47;4956121;28;45620;-81
2022/01/03 00:28:51;;;;;;;;;5.00;2.00;;;;;13.44;61.82;101417.31;4977495;28;45740;-80
2022/01/03 00:31:18;;;;;;;;;4.00;2.00;;;;;13.38;61.58;101405.28;4977821;28;48039;-83
2022/01/03 00:33:49;;;;;;;;;6.33;2.67;;;;;13.34;62.00;101408.66;4952053;28;46206;-79
2022/01/03 00:36:15;;;;;;;;;6.33;3.00;;;;;13.40;62.65;101425.19;4973438;28;45393;-79
2022/01/03 00:38:41;;;;;;;;;5.67;5.33;;;;;13.40;63.21;101429.84;4973628;28;45541;-79
2022/01/03 00:41:06;;;;;;;;;1.33;1.00;;;;;13.29;62.53;101419.41;4972736;28;46711;-78
2022/01/03 00:43:32;;;;;;;;;1.67;1.00;;;;;13.32;62.72;101430.00;4973076;28;45763;-78
2022/01/03 00:45:58;;;;;;;;;3.67;1.33;;;;;13.35;62.85;101421.34;4973502;28;45516;-82
2022/01/03 00:48:24;;;;;;;;;3.67;2.00;;;;;13.37;62.80;101430.28;4955748;28;45468;-79
2022/01/03 00:50:50;;;;;;;;;5.00;2.67;;;;;13.36;62.16;101431.31;4955332;28;47324;-81
2022/01/03 00:53:16;;;;;;;;;7.67;6.00;;;;;13.35;61.90;101413.09;4956141;28;45394;-83
2022/01/03 00:55:51;;;;;;;;;3.67;2.00;;;;;13.38;62.38;101423.69;4973003;28;45825;-82
2022/01/03 00:58:19;;;;;;;;;4.00;2.67;;;;;13.34;62.80;101422.44;4973486;28;45550;-82
2022/01/03 01:00:50;;;;;;;;;4.00;3.00;;;;;13.41;62.08;101421.38;4974710;28;45449;-81
2022/01/03 01:03:21;;;;;;;;;6.33;4.00;;;;;13.44;62.72;101420.09;4972232;28;45487;-80
2022/01/03 01:05:49;;;;;;;;;2.67;2.67;;;;;13.36;62.52;101401.84;4973104;28;45460;-79
2022/01/03 01:08:20;;;;;;;;;6.00;2.00;;;;;13.52;62.14;101422.63;4981180;28;45382;-81
2022/01/03 01:10:46;;;;;;;;;5.33;3.33;;;;;13.55;62.28;101424.97;4980115;28;45285;-77
2022/01/03 01:13:15;;;;;;;;;5.67;3.00;;;;;13.55;61.69;101424.97;4963676;28;45354;-81
2022/01/03 01:15:41;;;;;;;;;7.00;3.00;;;;;13.55;62.36;101418.63;4969488;28;45771;-78
2022/01/03 01:18:07;;;;;;;;;3.67;3.00;;;;;13.56;62.21;101420.31;4973050;28;45488;-81
2022/01/03 01:20:37;;;;;;;;;3.00;1.67;;;;;13.54;62.74;101423.25;4972827;28;45730;-79
2022/01/03 01:23:03;;;;;;;;;3.33;2.67;;;;;13.51;61.78;101411.84;4971525;28;46082;-79
2022/01/03 01:28:04;;;;;;;;;4.00;1.33;;;;;13.58;61.82;101415.44;4971097;28;45802;-78
2022/01/03 01:30:30;;;;;;;;;6.50;2.50;;;;;13.63;61.88;101423.06;4971179;28;45892;-80
2022/01/03 01:33:02;;;;;;;;;2.33;1.67;;;;;13.62;62.21;101402.91;4972938;28;45425;-81
2022/01/03 01:35:57;;;;;;;;;6.33;3.67;;;;;13.63;62.45;101401.03;4971738;28;45486;-82
2022/01/03 01:38:28;;;;;;;;;7.00;2.00;;;;;13.65;62.50;101393.38;4956544;28;45914;-80
2022/01/03 01:40:56;;;;;;;;;7.00;2.00;;;;;13.57;62.28;101391.69;4976926;28;47318;-80
2022/01/03 01:43:34;;;;;;;;;3.67;2.33;;;;;13.62;61.98;101402.06;4957885;28;45430;-79
2022/01/03 01:46:04;;;;;;;;;1.67;1.67;;;;;13.53;61.90;101404.19;4972174;28;45576;-79
2022/01/03 01:48:33;;;;;;;;;5.67;2.33;;;;;13.50;61.96;101393.59;4975286;28;45374;-78
2022/01/03 01:51:00;;;;;;;;;2.33;1.67;;;;;13.55;62.37;101399.34;4974965;28;45709;-79
2022/01/03 01:53:26;;;;;;;;;4.67;1.67;;;;;13.53;61.92;101398.69;4974831;28;46039;-83
2022/01/03 01:55:55;;;;;;;;;3.00;3.00;;;;;13.50;61.93;101396.34;4976708;28;45546;-78
2022/01/03 01:58:30;;;;;;;;;3.00;1.33;;;;;13.47;62.64;101385.75;4962887;28;45784;-78
2022/01/03 02:01:05;;;;;;;;;3.67;0.33;;;;;13.44;62.66;101389.78;4973107;28;47361;-79
2022/01/03 02:03:57;;;;;;;;;2.00;1.00;;;;;13.39;63.04;101384.06;4973746;28;45520;-80
2022/01/03 02:06:29;;;;;;;;;5.67;3.33;;;;;13.38;63.07;101399.75;4971014;28;45470;-78
2022/01/03 02:09:06;;;;;;;;;2.33;1.00;;;;;13.36;62.11;101392.75;4983982;28;45491;-82
2022/01/03 02:11:31;;;;;;;;;3.00;1.67;;;;;13.33;63.18;101401.41;4947655;28;47004;-77
2022/01/03 02:13:57;;;;;;;;;7.00;3.00;;;;;13.18;63.45;101393.34;4976161;28;45822;-78
2022/01/03 02:16:22;;;;;;;;;3.67;2.00;;;;;13.18;63.14;101402.44;4976304;28;45680;-80
2022/01/03 02:18:48;;;;;;;;;5.00;2.67;;;;;13.22;63.40;101400.97;4991297;28;46766;-79
2022/01/03 02:21:14;;;;;;;;;3.67;1.67;;;;;13.11;63.03;101378.72;4978585;28;45735;-81
2022/01/03 02:23:40;;;;;;;;;3.33;2.00;;;;;13.01;63.11;101365.38;4977142;28;45713;-81
2022/01/03 02:26:05;;;;;;;;;6.00;3.00;;;;;13.09;63.07;101391.84;4998791;28;45431;-77
2022/01/03 02:28:31;;;;;;;;;5.67;1.67;;;;;13.04;63.10;101387.00;4986053;28;45369;-78
2022/01/03 02:30:59;;;;;;;;;3.00;1.67;;;;;13.07;64.23;101401.16;4995789;28;45747;-80
2022/01/03 02:33:24;;;;;;;;;1.00;0.67;;;;;13.09;63.60;101409.22;5005023;28;45423;-82
2022/01/03 02:35:50;;;;;;;;;6.33;3.67;;;;;13.11;63.37;101414.53;5004965;28;45887;-80
2022/01/03 02:38:15;;;;;;;;;5.00;1.33;;;;;13.00;63.53;101405.81;4998307;28;45682;-80
2022/01/03 02:40:41;;;;;;;;;4.67;2.33;;;;;13.03;62.98;101410.91;4995555;28;45416;-82
2022/01/03 02:43:07;;;;;;;;;9.00;3.00;;;;;13.00;63.05;101399.47;4998339;28;45016;-80
2022/01/03 02:45:33;;;;;;;;;4.33;2.67;;;;;13.10;62.79;101402.66;4997798;28;45081;-81
2022/01/03 02:48:02;;;;;;;;;3.67;2.00;;;;;13.13;63.37;101399.50;4982796;28;45969;-79
2022/01/03 02:50:29;;;;;;;;;3.33;3.33;;;;;13.11;62.80;101400.75;4998242;28;45049;-77
2022/01/03 02:52:55;;;;;;;;;3.00;1.33;;;;;13.15;63.40;101410.28;4973799;28;45389;-80
2022/01/03 02:55:22;;;;;;;;;4.67;2.67;;;;;13.13;63.21;101413.25;4990725;28;45260;-81
2022/01/03 02:57:53;;;;;;;;;3.67;0.67;;;;;13.16;63.43;101407.34;4967034;28;45997;-78
2022/01/03 03:00:23;;;;;;;;;5.33;2.00;;;;;13.11;63.19;101400.75;4985164;28;45534;-82
2022/01/03 03:02:50;;;;;;;;;6.00;3.00;;;;;13.14;63.35;101397.56;4998486;28;45275;-79
2022/01/03 03:05:16;;;;;;;;;4.00;2.00;;;;;13.17;62.82;101408.16;5001743;28;45558;-82
2022/01/03 03:07:42;;;;;;;;;2.33;1.00;;;;;13.15;63.53;101391.03;5005831;28;45434;-79
2022/01/03 03:10:11;;;;;;;;;5.00;2.67;;;;;13.20;63.08;101397.59;4972608;28;47320;-81
2022/01/03 03:12:37;;;;;;;;;5.33;2.00;;;;;13.18;63.10;101383.16;4982749;28;45527;-82
2022/01/03 03:15:05;;;;;;;;;4.33;2.00;;;;;13.20;63.58;101372.81;4978405;28;45444;-79
2022/01/03 03:17:31;;;;;;;;;6.33;4.00;;;;;13.12;62.86;101358.38;4974941;28;45739;-77
2022/01/03 03:19:59;;;;;;;;;4.00;2.67;;;;;13.23;63.67;101377.03;4973702;28;45378;-78
2022/01/03 03:22:28;;;;;;;;;4.00;2.00;;;;;13.20;63.44;101364.53;4972313;28;45723;-78
2022/01/03 03:25:09;;;;;;;;;2.67;2.00;;;;;13.15;62.96;101361.56;4976329;28;45710;-80
2022/01/03 03:27:42;;;;;;;;;6.33;1.67;;;;;13.25;63.12;101370.25;4976287;28;46183;-81
2022/01/03 03:30:12;;;;;;;;;4.00;2.67;;;;;13.20;62.88;101370.06;4974566;28;46893;-77
2022/01/03 03:32:39;;;;;;;;;2.00;1.67;;;;;13.25;63.55;101375.75;4975953;28;45817;-78
2022/01/03 03:35:07;;;;;;;;;5.33;2.33;;;;;13.29;63.59;101380.84;4975206;28;45461;-78
2022/01/03 03:37:33;;;;;;;;;4.00;1.00;;;;;13.28;62.67;101371.75;4974656;28;46352;-79
2022/01/03 03:39:58;;;;;;;;;5.00;3.00;;;;;13.32;63.10;101377.66;4976037;28;46136;-80
2022/01/03 03:42:24;;;;;;;;;2.00;2.00;;;;;13.28;63.64;101366.25;4974903;28;45719;-77
2022/01/03 03:44:49;;;;;;;;;2.67;2.00;;;;;13.24;63.35;101360.28;4975924;28;45811;-77
2022/01/03 03:47:15;;;;;;;;;3.33;0.67;;;;;13.35;63.10;101369.00;4979497;28;45451;-81
2022/01/03 03:49:40;;;;;;;;;5.33;1.67;;;;;13.30;62.25;101350.34;4970106;28;47150;-78
2022/01/03 03:52:07;;;;;;;;;4.00;1.00;;;;;13.41;62.45;101359.88;4962188;28;45769;-78
2022/01/03 03:54:34;;;;;;;;;5.67;1.33;;;;;13.43;62.43;101355.03;4976030;28;45410;-78
2022/01/03 03:57:00;;;;;;;;;6.00;2.67;;;;;13.49;62.55;101364.34;4978477;28;45497;-81
2022/01/03 03:59:26;;;;;;;;;2.33;0.67;;;;;13.45;62.25;101352.91;4962512;28;47162;-81
2022/01/03 04:01:53;;;;;;;;;5.33;2.33;;;;;13.50;62.48;101344.88;4977329;28;45460;-82
2022/01/03 04:04:19;;;;;;;;;1.33;0.33;;;;;13.58;61.82;101349.31;4982818;28;45822;-82
2022/01/03 04:06:44;;;;;;;;;2.00;2.00;;;;;13.58;61.39;101343.78;4962843;28;45848;-84
2022/01/03 04:09:10;;;;;;;;;8.33;3.00;;;;;13.64;61.62;101353.09;4973364;28;45681;-82
2022/01/03 04:11:36;;;;;;;;;9.33;4.33;;;;;13.62;61.83;101338.69;4983650;28;45474;-82
2022/01/03 04:14:02;;;;;;;;;2.00;0.00;;;;;13.66;61.87;101350.97;4978066;28;45355;-78
2022/01/03 04:16:27;;;;;;;;;2.67;2.67;;;;;13.65;61.07;101333.56;4974415;28;45567;-81
2022/01/03 04:18:53;;;;;;;;;2.67;1.33;;;;;13.66;61.15;101327.00;4977646;28;46949;-82
2022/01/03 04:21:19;;;;;;;;;3.00;0.67;;;;;13.67;61.37;101336.16;4987131;28;45705;-79
2022/01/03 04:23:44;;;;;;;;;4.00;0.67;;;;;13.70;61.40;101330.19;4992556;28;45559;-77
2022/01/03 04:26:11;;;;;;;;;7.67;2.33;;;;;13.69;61.60;101322.97;4992438;28;45486;-81
2022/01/03 04:28:37;;;;;;;;;3.33;2.67;;;;;13.71;61.10;101318.09;4997147;28;45426;-81
2022/01/03 04:31:02;;;;;;;;;4.00;1.33;;;;;13.71;61.16;101316.19;4994713;28;45635;-76
2022/01/03 04:33:28;;;;;;;;;1.67;0.67;;;;;13.75;61.59;101322.94;4965643;28;45849;-79
2022/01/03 04:35:53;;;;;;;;;2.00;2.00;;;;;13.72;61.51;101322.56;4974099;28;45540;-81
2022/01/03 04:38:19;;;;;;;;;4.00;2.33;;;;;13.68;60.88;101307.50;4968467;28;47644;-79
2022/01/03 04:40:45;;;;;;;;;3.67;1.00;;;;;13.75;61.65;101300.91;4956904;28;45472;-81
2022/01/03 04:43:10;;;;;;;;;7.67;3.00;;;;;13.76;61.14;101301.75;4982536;28;45460;-83
2022/01/03 04:45:36;;;;;;;;;6.00;3.00;;;;;13.70;61.16;101300.72;4999936;28;44886;-81
2022/01/03 04:48:02;;;;;;;;;5.00;2.00;;;;;13.66;60.79;101287.59;4986873;28;46833;-81
2022/01/03 04:50:27;;;;;;;;;4.00;2.00;;;;;13.72;61.29;101294.97;4973460;28;45392;-81
2022/01/03 04:52:53;;;;;;;;;5.00;1.33;;;;;13.79;60.43;101304.09;4971733;28;45553;-79
2022/01/03 04:55:18;;;;;;;;;2.00;2.00;;;;;13.79;61.76;101304.09;4972085;28;45888;-81
2022/01/03 04:57:44;;;;;;;;;4.00;1.00;;;;;13.82;60.79;101308.31;4972269;28;45801;-78
2022/01/03 05:00:10;;;;;;;;;4.00;0.67;;;;;13.82;60.67;101311.06;4972090;28;45360;-80
2022/01/03 05:02:37;;;;;;;;;2.33;0.00;;;;;13.80;60.63;101294.72;4972542;28;45972;-81
2022/01/03 05:05:04;;;;;;;;;3.00;2.00;;;;;13.86;60.20;101295.78;4967627;28;46308;-82
2022/01/03 05:07:29;;;;;;;;;4.00;2.33;;;;;13.84;61.50;101304.28;4968480;28;46165;-84
2022/01/03 05:09:55;;;;;;;;;2.67;2.67;;;;;13.84;61.14;101298.75;4973442;28;45855;-79
2022/01/03 05:12:43;;;;;;;;;2.67;1.67;;;;;13.68;60.73;101267.03;4976320;28;45526;-84
2022/01/03 05:15:09;;;;;;;;;2.33;0.67;;;;;13.76;61.38;101290.75;4973985;28;46973;-82
2022/01/03 05:17:35;;;;;;;;;1.00;1.00;;;;;13.74;61.39;101290.09;4975946;28;45794;-84
2022/01/03 05:20:01;;;;;;;;;9.00;1.33;;;;;13.80;61.38;101286.47;4975805;28;45716;-78
2022/01/03 05:22:27;;;;;;;;;2.33;1.67;;;;;13.80;60.81;101291.97;4974576;28;45793;-81
2022/01/03 05:24:52;;;;;;;;;4.33;2.00;;;;;13.80;60.12;101300.25;4957314;28;46160;-82
2022/01/03 05:27:21;;;;;;;;;1.33;1.00;;;;;13.81;60.59;101292.84;4975267;28;45787;-82
2022/01/03 05:29:46;;;;;;;;;6.67;1.33;;;;;13.83;60.72;101299.84;4957473;28;45737;-83
2022/01/03 05:32:12;;;;;;;;;2.00;1.00;;;;;13.79;60.99;101298.56;4974164;28;45486;-84
2022/01/03 05:34:37;;;;;;;;;6.00;1.67;;;;;13.75;60.51;101292.63;4974992;28;45694;-81
2022/01/03 05:37:03;;;;;;;;;2.67;2.00;;;;;13.83;61.16;101301.72;4958958;28;48139;-82
2022/01/03 05:39:28;;;;;;;;;7.67;1.33;;;;;13.86;61.29;101301.28;4975457;28;45891;-83
2022/01/03 05:41:55;;;;;;;;;1.67;1.33;;;;;13.81;60.35;101298.34;4981615;28;45957;-84
2022/01/03 05:44:20;;;;;;;;;0.33;0.33;;;;;13.86;60.51;101301.28;4978237;28;45595;-79
2022/01/03 05:46:46;;;;;;;;;3.33;2.33;;;;;13.79;60.25;101279.28;4988488;28;46397;-83
2022/01/03 05:49:12;;;;;;;;;2.00;2.00;;;;;13.91;60.92;101296.00;4969546;28;45356;-84
2022/01/03 05:51:38;;;;;;;;;4.33;2.33;;;;;13.86;60.87;101291.13;4982582;28;45558;-83
2022/01/03 05:54:04;;;;;;;;;4.00;1.33;;;;;13.81;60.85;101279.06;4987185;28;45504;-80
2022/01/03 05:56:30;;;;;;;;;3.67;2.00;;;;;13.85;61.69;101292.19;4977361;28;48184;-85
2022/01/03 05:58:55;;;;;;;;;6.00;3.00;;;;;13.90;60.83;101297.88;5008497;28;45398;-80
2022/01/03 06:01:22;;;;;;;;;3.00;3.00;;;;;13.90;61.13;101295.13;4998417;28;45074;-78
2022/01/03 06:03:56;;;;;;;;;3.67;1.67;;;;;13.93;61.18;101304.88;4996633;28;45488;-74
2022/01/03 06:06:32;;;;;;;;;6.00;3.67;;;;;13.91;60.69;101299.59;4995335;28;46343;-70
2022/01/03 06:08:57;;;;;;;;;4.00;1.33;;;;;13.89;61.55;101290.69;4995268;28;45823;-72
2022/01/03 06:11:23;;;;;;;;;2.67;1.33;;;;;13.90;61.27;101289.59;4981403;28;46086;-70
2022/01/03 06:13:49;;;;;;;;;5.00;2.00;;;;;13.88;60.85;101289.00;4975033;28;45968;-74
2022/01/03 06:16:15;;;;;;;;;0.67;0.67;;;;;13.87;61.06;101298.31;4979449;28;45723;-77
2022/01/03 06:18:43;;;;;;;;;2.67;2.00;;;;;13.90;61.10;101297.03;4986535;28;45417;-77
2022/01/03 06:21:09;;;;;;;;;3.00;1.00;;;;;13.92;61.42;101294.91;4988247;28;45492;-75
2022/01/03 06:23:34;;;;;;;;;4.67;3.00;;;;;13.90;61.01;101295.13;4986795;28;45410;-70
2022/01/03 06:26:00;;;;;;;;;5.33;2.00;;;;;13.88;61.30;101291.75;4962091;28;46726;-74
2022/01/03 06:28:25;;;;;;;;;3.00;0.67;;;;;13.88;61.95;101289.00;4979237;28;45476;-71
2022/01/03 06:30:51;;;;;;;;;6.67;3.33;;;;;13.85;61.14;101278.41;4958682;28;45775;-75
2022/01/03 06:33:16;;;;;;;;;3.67;2.00;;;;;13.81;60.81;101281.81;4979989;28;44775;-70
2022/01/03 06:35:42;;;;;;;;;6.67;3.67;;;;;13.84;61.73;101276.69;4980248;28;45355;-75
2022/01/03 06:38:07;;;;;;;;;9.33;2.00;;;;;13.84;61.78;101268.44;4985382;28;45442;-76
2022/01/03 06:40:33;;;;;;;;;3.67;1.00;;;;;13.84;61.35;101271.19;4980403;28;45489;-70
2022/01/03 06:42:58;;;;;;;;;8.33;4.00;;;;;13.81;61.20;101268.88;4957139;28;46414;-71
2022/01/03 06:45:24;;;;;;;;;4.00;2.67;;;;;13.81;61.71;101265.28;4980027;28;47588;-72
2022/01/03 06:47:50;;;;;;;;;12.67;8.67;;;;;13.80;61.84;101269.91;4977780;28;45513;-75
2022/01/03 06:50:16;;;;;;;;;7.00;4.67;;;;;13.77;60.99;101276.75;4981704;28;45403;-77
2022/01/03 06:52:41;;;;;;;;;12.33;4.33;;;;;13.77;62.02;101264.84;4979888;28;45716;-71
2022/01/03 06:55:08;;;;;;;;;3.33;2.33;;;;;13.73;62.25;101258.09;4975298;28;45413;-69
2022/01/03 06:57:33;;;;;;;;;17.00;6.67;;;;;13.80;61.89;101269.09;4980428;28;45869;-70
2022/01/03 06:59:59;;;;;;;;;3.67;2.00;;;;;13.78;61.58;101263.78;4975539;28;45851;-73
2022/01/03 07:02:24;;;;;;;;;8.00;3.33;;;;;13.77;61.37;101256.56;4974832;28;45549;-71
2022/01/03 07:04:50;;;;;;;;;3.00;2.00;;;;;13.79;61.24;101262.72;4983358;28;46019;-73
2022/01/03 07:07:18;;;;;;;;;5.00;1.67;;;;;13.80;62.25;101258.06;4988421;28;45899;-79
2022/01/03 07:09:44;;;;;;;;;4.00;1.33;;;;;13.78;61.30;101261.03;4984467;28;44786;-79
2022/01/03 07:12:11;;;;;;;;;3.00;1.33;;;;;13.74;61.92;101254.25;4981279;28;45516;-77
2022/01/03 07:19:55;;;;;;;;;4.67;3.33;;;;;13.76;61.45;101252.16;4984076;28;45696;-78
2022/01/03 07:22:21;;;;;;;;;2.33;0.67;;;;;13.76;61.85;101255.75;4967123;28;45718;-77
2022/01/03 07:24:47;;;;;;;;;2.33;2.33;;;;;13.73;60.82;101241.56;4967319;28;46756;-72
2022/01/03 07:27:13;;;;;;;;;4.00;2.67;;;;;13.74;62.19;101246.84;4949837;28;45456;-73
2022/01/03 07:29:39;;;;;;;;;4.67;3.33;;;;;13.76;62.01;101244.72;4961677;28;45475;-77
2022/01/03 07:32:06;;;;;;;;;4.00;4.00;;;;;13.77;61.70;101249.16;4935152;28;45864;-73
2022/01/03 07:34:32;;;;;;;;;5.67;2.67;;;;;13.77;61.86;101240.03;4941842;28;45714;-77
2022/01/03 07:36:57;;;;;;;;;4.00;1.67;;;;;13.75;61.41;101240.25;4916781;28;45775;-77
2022/01/03 07:39:22;;;;;;;;;4.00;2.33;;;;;13.74;61.85;101232.19;4945672;28;45521;-73
2022/01/03 07:41:48;;;;;;;;;3.67;1.67;;;;;13.72;62.30;101229.66;4963859;28;45716;-73
2022/01/03 07:44:14;;;;;;;;;3.67;2.00;;;;;13.70;62.10;101233.72;4982342;28;46454;-78
2022/01/03 07:46:39;;;;;;;;;3.33;2.00;;;;;13.68;62.00;101235.84;4955830;28;45991;-76
2022/01/03 07:49:04;;;;;;;;;5.00;1.00;;;;;13.71;62.54;101232.63;4972138;28;45732;-72
2022/01/03 07:51:31;;;;;;;;;2.67;2.00;;;;;13.68;61.86;101228.44;4973774;28;45657;-78
2022/01/03 07:53:56;;;;;;;;;4.67;3.67;;;;;13.69;62.38;101230.09;4972676;28;45721;-73
2022/01/03 07:56:22;;;;;;;;;6.00;1.67;;;;;13.69;61.83;101235.63;4972279;28;45747;-73
2022/01/03 07:58:50;;;;;;;;;5.33;1.33;;;;;13.68;61.67;101233.06;4968206;28;45952;-71
2022/01/03 08:01:16;;;;;;;;;1.67;1.00;;;;;13.68;62.14;101233.94;4969874;28;45496;-72
2022/01/03 08:03:41;;;;;;;;;3.33;1.67;;;;;13.70;62.25;101217.19;4974793;28;46611;-72
2022/01/03 08:06:09;;;;;;;;;9.00;4.00;;;;;13.72;61.79;101209.53;4972828;28;45867;-72
2022/01/03 08:08:38;;;;;;;;;2.67;1.00;;;;;13.72;61.85;101217.81;4972969;28;45508;-79
2022/01/03 08:11:04;;;;;;;;;2.00;1.33;;;;;13.71;62.08;101216.97;4954818;28;45883;-79
2022/01/03 08:13:30;;;;;;;;;2.67;1.33;;;;;13.71;61.84;101211.47;4972531;28;45544;-74
2022/01/03 08:15:55;;;;;;;;;3.67;3.00;;;;;13.72;62.31;101209.53;4971530;28;45393;-77
2022/01/03 08:18:21;;;;;;;;;5.67;4.33;;;;;13.74;61.23;101210.16;4971828;28;45430;-73
2022/01/03 08:20:46;;;;;;;;;7.00;4.00;;;;;13.76;61.42;101224.56;4972379;28;45547;-78
2022/01/03 08:23:14;;;;;;;;;4.33;3.67;;;;;13.72;61.90;101212.28;4944395;28;46570;-71
2022/01/03 08:25:40;;;;;;;;;4.00;1.33;;;;;13.77;61.82;101216.09;4973279;28;45442;-73
2022/01/03 08:28:07;;;;;;;;;3.00;1.00;;;;;13.79;61.19;101202.09;4971305;28;45454;-77
2022/01/03 08:30:34;;;;;;;;;2.33;1.67;;;;;13.81;62.16;101204.63;4972713;28;45510;-73
2022/01/03 08:33:00;;;;;;;;;4.33;1.33;;;;;13.84;61.60;101213.28;4952822;28;46762;-72
2022/01/03 08:35:26;;;;;;;;;6.33;2.33;;;;;13.86;61.69;101202.91;4971606;28;45394;-73
2022/01/03 08:37:53;;;;;;;;;1.00;0.67;;;;;13.89;61.70;101207.97;4971942;28;45465;-79
2022/01/03 08:40:19;;;;;;;;;7.00;3.00;;;;;13.89;61.71;101207.13;4970619;28;46510;-76
2022/01/03 08:42:45;;;;;;;;;5.67;3.00;;;;;13.90;61.81;101208.81;4973511;28;45377;-77
2022/01/03 08:45:11;;;;;;;;;2.67;2.00;;;;;13.91;61.93;101205.00;4971489;28;45757;-77
2022/01/03 08:47:36;;;;;;;;;4.67;1.00;;;;;13.86;61.38;101191.00;4954459;28;45881;-73
2022/01/03 08:50:03;;;;;;;;;3.67;3.33;;;;;13.87;61.35;101193.53;4953902;28;45799;-77
2022/01/03 08:52:30;;;;;;;;;3.00;2.00;;;;;13.82;62.12;101179.59;4971212;28;45484;-78
2022/01/03 08:54:55;;;;;;;;;3.67;3.33;;;;;13.86;61.93;101191.00;4971943;28;46028;-77
2022/01/03 08:57:21;;;;;;;;;6.33;4.67;;;;;13.86;62.10;101185.50;4972111;28;45819;-72
2022/01/03 08:59:48;;;;;;;;;2.33;1.33;;;;;13.86;62.11;101185.50;4971379;28;45538;-72
2022/01/03 09:02:16;;;;;;;;;4.33;4.33;;;;;13.89;62.04;101191.44;4955797;28;46730;-73
2022/01/03 09:04:42;;;;;;;;;3.33;1.67;;;;;13.90;62.35;101189.50;4969406;28;45683;-77
2022/01/03 09:07:07;;;;;;;;;4.33;2.00;;;;;13.86;61.71;101186.38;4970406;28;45771;-78
2022/01/03 09:09:34;;;;;;;;;6.33;2.00;;;;;13.89;62.35;101185.91;4972313;28;45405;-77
2022/01/03 09:12:00;;;;;;;;;2.00;1.00;;;;;13.94;62.26;101191.59;4970741;28;45620;-77
2022/01/03 09:14:25;;;;;;;;;3.67;2.00;;;;;13.98;61.86;101182.88;4970500;28;45470;-73
2022/01/03 09:16:51;;;;;;;;;3.00;1.00;;;;;13.99;62.23;101195.63;4977009;28;45823;-78
2022/01/03 09:19:16;;;;;;;;;4.67;2.67;;;;;14.00;61.65;101186.28;4972561;28;45752;-78
2022/01/03 09:21:42;;;;;;;;;3.67;1.67;;;;;14.03;61.92;101177.56;4973004;28;46390;-77
2022/01/03 09:24:29;;;;;;;;;7.67;4.00;;;;;14.08;61.34;101177.75;4954080;28;45756;-79
2022/01/03 09:29:43;;;;;;;;;3.33;1.67;;;;;14.19;61.39;101188.09;4971557;28;45663;-78
2022/01/03 09:32:08;;;;;;;;;3.33;3.00;;;;;14.20;60.82;101189.75;4972157;28;45850;-72
2022/01/03 09:34:35;;;;;;;;;3.00;1.50;;;;;14.23;61.44;101169.16;4972689;28;45522;-73
2022/01/03 09:37:01;;;;;;;;;6.00;1.67;;;;;14.24;61.40;101174.44;4972471;28;45386;-79
2022/01/03 09:39:27;;;;;;;;;3.00;3.00;;;;;14.36;61.75;101171.81;4976959;28;45558;-72
2022/01/03 09:42:02;;;;;;;;;3.33;3.00;;;;;14.39;61.06;101156.75;4974485;28;46513;-73
2022/01/03 09:44:33;;;;;;;;;4.00;2.00;;;;;14.48;60.57;101166.44;4980749;28;44920;-72
2022/01/03 09:47:04;;;;;;;;;5.67;3.33;;;;;14.53;61.13;101183.16;4985718;28;45691;-77
2022/01/03 09:49:35;;;;;;;;;3.00;2.00;;;;;14.59;60.36;101178.66;4986776;28;46350;-76
2022/01/03 09:52:03;;;;;;;;;6.33;4.00;;;;;14.59;60.96;101168.44;4969182;28;46132;-77
2022/01/03 09:54:29;;;;;;;;;2.33;2.33;;;;;14.62;60.35;101173.53;4980355;28;44843;-70
2022/01/03 09:56:58;;;;;;;;;2.67;1.67;;;;;14.65;60.81;101180.53;4976519;28;45369;-73
2022/01/03 09:59:24;;;;;;;;;4.00;3.00;;;;;14.69;61.00;101173.50;4984662;28;45830;-77
2022/01/03 10:01:52;;;;;;;;;5.67;1.00;;;;;14.76;60.11;101166.00;4987780;28;45381;-77
2022/01/03 10:04:18;;;;;;;;;2.33;1.33;;;;;14.73;60.13;101155.41;4988118;28;45419;-78
2022/01/03 10:06:44;;;;;;;;;12.67;2.00;;;;;14.82;60.12;101164.25;4980126;28;45887;-72
2022/01/03 10:09:10;;;;;;;;;2.67;2.67;;;;;14.88;59.62;101166.13;4961086;28;46487;-71
2022/01/03 10:11:35;;;;;;;;;3.67;1.00;;;;;14.95;60.06;101172.41;4978096;28;46350;-72
2022/01/03 10:14:01;;;;;;;;;4.00;1.33;;;;;14.97;60.05;101158.34;4983113;28;45771;-76
2022/01/03 10:16:28;;;;;;;;;5.00;1.67;;;;;14.96;59.74;101152.00;4989414;28;44769;-78
2022/01/03 10:18:54;;;;;;;;;3.00;1.00;;;;;14.99;59.32;101157.06;4993642;28;45651;-83
2022/01/03 10:21:43;;;;;;;;;2.00;0.33;;;;;15.04;59.62;101152.78;4981347;28;47274;-74
2022/01/03 10:24:14;;;;;;;;;5.00;2.00;;;;;15.04;59.18;101144.50;4980075;28;45819;-77
2022/01/03 10:26:42;;;;;;;;;1.33;1.33;;;;;15.05;59.06;101138.75;5007338;28;45487;-78
2022/01/03 10:29:20;;;;;;;;;2.00;2.00;;;;;15.06;59.08;101139.56;4994031;28;45701;-72
2022/01/03 10:31:54;;;;;;;;;2.67;1.67;;;;;15.07;58.89;101135.75;4982122;28;46641;-75
2022/01/03 10:34:23;;;;;;;;;1.33;0.00;;;;;15.04;58.66;101137.03;5008067;28;45739;-77
2022/01/03 10:36:49;;;;;;;;;5.00;2.00;;;;;15.06;58.58;101128.53;5002788;28;45374;-77
2022/01/03 10:39:18;;;;;;;;;4.00;2.67;;;;;15.04;58.70;101130.69;4987759;28;45873;-77
2022/01/03 10:41:52;;;;;;;;;4.00;2.00;;;;;15.06;58.92;101128.53;4982860;28;46782;-76
2022/01/03 10:44:33;;;;;;;;;1.67;1.00;;;;;15.07;58.81;101125.53;4983948;28;45698;-71
2022/01/03 10:46:59;;;;;;;;;7.00;2.00;;;;;15.02;58.59;101127.31;4980844;28;45433;-71
2022/01/03 10:49:26;;;;;;;;;5.00;1.00;;;;;14.99;59.38;101112.88;4978462;28;45528;-77
2022/01/03 10:52:12;;;;;;;;;3.00;2.00;;;;;15.04;59.11;101103.88;4965226;28;46901;-76
2022/01/03 10:54:38;;;;;;;;;6.33;2.67;;;;;15.09;58.44;101111.47;4961183;28;45253;-77
2022/01/03 10:57:04;;;;;;;;;4.00;3.00;;;;;15.10;58.71;101102.97;4987290;28;45385;-78
2022/01/03 10:59:31;;;;;;;;;3.00;1.67;;;;;15.02;57.90;101100.53;5002367;28;45349;-78
2022/01/03 11:02:00;;;;;;;;;5.33;3.00;;;;;15.03;59.23;101105.00;4983171;28;46354;-73
2022/01/03 11:04:55;;;;;;;;;3.67;1.00;;;;;15.04;58.41;101100.28;4986102;28;45450;-78
2022/01/03 11:13:19;;;;;;;;;2.33;2.33;;;;;15.03;58.61;101079.25;4988003;28;45415;-79
2022/01/03 11:16:04;;;;;;;;;3.00;2.00;;;;;15.11;58.74;101082.56;4971420;28;45809;-78
2022/01/03 11:18:32;;;;;;;;;3.67;1.33;;;;;15.12;58.86;101086.16;4971220;28;45808;-78
2022/01/03 11:21:09;;;;;;;;;2.33;1.33;;;;;15.11;58.86;101085.31;4984100;28;46246;-77
2022/01/03 11:23:36;;;;;;;;;3.00;2.00;;;;;15.11;58.54;101066.00;4983881;28;45460;-77
2022/01/03 11:26:13;;;;;;;;;3.33;3.33;;;;;15.17;58.83;101064.22;4960355;28;46604;-74
2022/01/03 11:28:40;;;;;;;;;3.67;2.33;;;;;15.19;58.56;101056.53;4955822;28;45824;-74
2022/01/03 11:31:07;;;;;;;;;7.67;2.00;;;;;15.23;58.22;101045.88;4977340;28;45508;-77
2022/01/03 11:33:35;;;;;;;;;2.33;2.00;;;;;15.25;58.30;101050.06;4976042;28;45434;-78
2022/01/03 11:36:02;;;;;;;;;5.33;2.00;;;;;15.28;58.72;101038.56;4978777;28;45715;-78
2022/01/03 11:38:30;;;;;;;;;4.00;1.00;;;;;15.34;57.81;101043.19;4983308;28;45386;-74
2022/01/03 11:41:00;;;;;;;;;7.00;4.00;;;;;15.40;58.35;101044.16;4983964;28;45498;-82
2022/01/03 11:43:27;;;;;;;;;10.00;4.00;;;;;15.42;57.58;101038.38;4992997;28;45821;-79